Weather at Ronald Reagan Washington National Airport

Public forecast

Using degrees Fahrenheit for public forecast. Weather courtesy of forecast.io.

Current aviation weather report (METAR) for Ronald Reagan Washington National Airport

Retrieved 2020/10/20 15:52 UTC (40 minutes ago):

KDCA 201552Z 16006KT 10SM SCT012 BKN250 19/16 A3025 RMK AO2 SLP243 T01890156

Aviation forecast (TAF) for Ronald Reagan Washington National Airport

Retrieved 2020/10/20 12:28 UTC (4 hours ago):

TAF KDCA 201126Z 2012/2118 21004KT 1SM BR OVC002 FM201400 19005KT P6SM BKN003 FM201600 19005KT P6SM SKC FM210800 VRB03KT P6SM OVC008 FM211000 18004KT 2SM BR OVC004 FM211500 18006KT P6SM SCT030